createdAt,value
2019-02-27T00:03:51.455Z,10.83
2019-02-27T00:06:39.201Z,6.83
2019-02-27T00:09:27.013Z,7.30
2019-02-27T00:12:16.880Z,6.33
2019-02-27T00:15:05.718Z,6.63
2019-02-27T00:17:53.726Z,5.67
2019-02-27T00:20:41.484Z,6.27
2019-02-27T00:23:29.224Z,6.70
2019-02-27T00:26:09.598Z,5.83
2019-02-27T00:28:50.284Z,6.97
2019-02-27T00:31:30.757Z,8.03
2019-02-27T00:34:11.624Z,6.27
2019-02-27T00:36:52.045Z,6.60
2019-02-27T00:39:33.301Z,7.57
2019-02-27T00:42:13.864Z,7.83
2019-02-27T00:44:54.476Z,7.30
2019-02-27T00:47:35.026Z,7.23
2019-02-27T00:50:15.921Z,7.30
2019-02-27T00:52:57.052Z,8.17
2019-02-27T00:55:39.326Z,7.90
2019-02-27T00:58:07.896Z,7.73
2019-02-27T01:00:55.644Z,7.20
2019-02-27T01:03:43.396Z,6.70
2019-02-27T01:06:31.154Z,6.87
2019-02-27T01:09:18.899Z,8.83
2019-02-27T01:12:06.643Z,6.27
2019-02-27T01:17:47.336Z,11.20
2019-02-27T01:20:35.087Z,7.00
2019-02-27T01:23:22.849Z,7.67
2019-02-27T01:26:03.815Z,7.20
2019-02-27T01:28:45.415Z,6.07
2019-02-27T01:31:24.517Z,4.80
2019-02-27T01:34:12.609Z,6.13
2019-02-27T01:37:00.381Z,6.70
2019-02-27T01:39:48.146Z,5.07
2019-02-27T01:42:35.888Z,5.60
2019-02-27T01:45:23.650Z,5.43
2019-02-27T01:48:12.708Z,5.33
2019-02-27T01:51:00.491Z,5.60
2019-02-27T01:53:48.245Z,6.97
2019-02-27T01:56:36.013Z,5.63
2019-02-27T01:59:23.777Z,6.10
2019-02-27T02:02:11.599Z,5.17
2019-02-27T02:04:59.353Z,5.17
2019-02-27T02:07:47.481Z,5.03
2019-02-27T02:10:35.380Z,7.20
2019-02-27T02:13:48.052Z,6.13
2019-02-27T02:16:54.043Z,5.30
2019-02-27T02:20:01.108Z,5.70
2019-02-27T02:22:50.406Z,5.33
2019-02-27T02:25:31.197Z,6.00
2019-02-27T02:28:12.096Z,6.03
2019-02-27T02:36:26.572Z,6.70
2019-02-27T02:41:56.917Z,6.33
2019-02-27T02:44:46.240Z,5.53
2019-02-27T02:47:55.886Z,6.67
2019-02-27T02:51:02.133Z,4.90
2019-02-27T03:02:36.085Z,5.43
2019-02-27T03:05:23.657Z,5.87
2019-02-27T03:08:30.211Z,4.50
2019-02-27T03:11:19.525Z,5.83
2019-02-27T03:17:41.138Z,5.97
2019-02-27T03:20:51.725Z,3.37
2019-02-27T03:23:57.008Z,5.50
2019-02-27T03:27:04.081Z,5.17
2019-02-27T03:30:11.178Z,4.63
2019-02-27T03:33:24.489Z,5.90
2019-02-27T03:36:36.082Z,4.90
2019-02-27T03:39:23.474Z,4.23
2019-02-27T03:42:30.787Z,5.40
2019-02-27T03:45:39.348Z,6.43
2019-02-27T03:48:46.408Z,4.83
2019-02-27T03:52:00.107Z,5.27
2019-02-27T03:55:02.265Z,5.67
2019-02-27T03:58:09.337Z,4.57
2019-02-27T04:00:49.856Z,4.03
2019-02-27T04:03:32.289Z,4.10
2019-02-27T04:06:40.763Z,6.30
2019-02-27T04:09:28.517Z,6.73
2019-02-27T04:12:17.357Z,4.80
2019-02-27T04:15:25.889Z,5.17
2019-02-27T04:18:13.108Z,5.53
2019-02-27T04:24:07.732Z,5.03
2019-02-27T04:26:55.471Z,4.07
2019-02-27T04:29:23.887Z,5.43
2019-02-27T04:32:12.494Z,6.60
2019-02-27T04:35:01.099Z,4.53
2019-02-27T04:37:48.857Z,5.20
2019-02-27T04:40:36.583Z,4.57
2019-02-27T04:43:24.346Z,4.60
2019-02-27T04:46:12.076Z,4.27
2019-02-27T04:49:04.066Z,5.23
2019-02-27T04:51:50.589Z,4.77
2019-02-27T04:54:41.316Z,7.20
2019-02-27T04:57:30.793Z,9.70
2019-02-27T04:59:58.452Z,7.20
2019-02-27T05:02:39.541Z,7.53
2019-02-27T05:05:20.130Z,8.17
2019-02-27T05:08:00.919Z,6.63
2019-02-27T05:10:42.005Z,5.40
2019-02-27T05:13:22.341Z,9.17
2019-02-27T05:18:48.965Z,9.67
2019-02-27T05:21:36.716Z,8.73
2019-02-27T05:24:07.446Z,4.57
2019-02-27T05:26:54.600Z,6.40
2019-02-27T05:29:42.350Z,6.07
2019-02-27T05:32:10.761Z,5.90
2019-02-27T05:34:39.222Z,7.60
2019-02-27T05:37:27.044Z,6.23
2019-02-27T05:39:55.438Z,5.73
2019-02-27T05:42:23.836Z,8.23
2019-02-27T05:44:55.591Z,6.17
2019-02-27T05:47:22.364Z,7.07
2019-02-27T05:50:33.980Z,6.60
2019-02-27T05:53:22.286Z,5.83
2019-02-27T05:56:09.759Z,8.40
2019-02-27T05:58:57.515Z,5.07
2019-02-27T06:01:45.248Z,6.33
2019-02-27T06:04:34.464Z,6.23
2019-02-27T06:09:57.579Z,6.90
2019-02-27T06:12:40.771Z,5.87
2019-02-27T06:15:20.960Z,6.93
2019-02-27T06:18:01.717Z,6.30
2019-02-27T06:20:42.580Z,6.73
2019-02-27T06:23:23.052Z,6.33
2019-02-27T06:26:03.935Z,8.77
2019-02-27T06:28:32.347Z,9.20
2019-02-27T06:31:20.105Z,5.50
2019-02-27T06:34:07.854Z,15.03
2019-02-27T06:36:55.600Z,8.93
2019-02-27T06:39:43.360Z,15.40
2019-02-27T06:42:31.152Z,15.93
2019-02-27T06:45:19.030Z,9.00
2019-02-27T06:48:09.328Z,14.27
2019-02-27T06:50:36.904Z,11.53
2019-02-27T06:53:24.644Z,11.33
2019-02-27T06:56:12.464Z,11.07
2019-02-27T06:59:00.208Z,9.53
2019-02-27T07:01:48.130Z,7.83
2019-02-27T07:04:16.535Z,7.77
2019-02-27T07:07:04.308Z,8.43
2019-02-27T07:09:52.060Z,5.63
2019-02-27T07:12:32.917Z,7.27
2019-02-27T07:15:13.743Z,7.23
2019-02-27T07:17:54.566Z,8.37
2019-02-27T07:23:22.624Z,8.40
2019-02-27T07:26:00.278Z,7.37
2019-02-27T07:28:28.726Z,8.50
2019-02-27T07:31:18.310Z,8.73
2019-02-27T07:34:25.182Z,8.03
2019-02-27T07:36:53.583Z,7.87
2019-02-27T07:39:41.426Z,6.23
2019-02-27T07:42:09.827Z,10.90
2019-02-27T07:44:38.228Z,8.63
2019-02-27T07:47:26.034Z,8.03
2019-02-27T07:50:14.773Z,12.97
2019-02-27T07:53:02.522Z,5.67
2019-02-27T07:55:50.281Z,5.27
2019-02-27T07:58:38.104Z,6.83
2019-02-27T08:01:26.080Z,11.43
2019-02-27T08:04:13.893Z,8.60
2019-02-27T08:07:01.712Z,6.50
2019-02-27T08:09:49.477Z,8.50
2019-02-27T08:12:29.830Z,7.07
2019-02-27T08:15:10.871Z,10.27
2019-02-27T08:17:52.151Z,8.87
2019-02-27T08:20:21.242Z,8.73
2019-02-27T08:26:18.977Z,10.50
2019-02-27T08:29:06.756Z,8.13
2019-02-27T08:31:54.504Z,11.30
2019-02-27T08:34:42.245Z,9.80
2019-02-27T08:37:30.007Z,9.07
2019-02-27T08:40:17.807Z,11.37
2019-02-27T08:43:05.559Z,6.50
2019-02-27T08:45:52.988Z,5.33
2019-02-27T08:48:40.420Z,12.30
2019-02-27T08:51:28.172Z,16.13
2019-02-27T08:54:15.918Z,9.57
2019-02-27T08:57:03.661Z,12.10
2019-02-27T08:59:51.411Z,10.63
2019-02-27T09:02:39.727Z,14.60
2019-02-27T09:05:51.095Z,13.27
2019-02-27T09:08:43.329Z,14.00
2019-02-27T09:11:23.157Z,9.90
2019-02-27T09:13:51.584Z,12.10
2019-02-27T09:16:39.327Z,9.73
2019-02-27T09:19:27.092Z,8.73
2019-02-27T09:22:15.159Z,15.87
2019-02-27T09:25:02.981Z,9.70
2019-02-27T09:27:50.414Z,14.57
2019-02-27T09:30:37.855Z,12.90
2019-02-27T09:33:25.613Z,14.23
2019-02-27T09:36:13.436Z,11.97
2019-02-27T09:39:01.188Z,11.90
2019-02-27T09:41:48.945Z,12.27
2019-02-27T09:44:36.747Z,12.70
2019-02-27T09:47:26.485Z,15.43
2019-02-27T09:50:35.034Z,12.07
2019-02-27T09:53:42.119Z,9.07
2019-02-27T09:56:11.649Z,10.83
2019-02-27T09:59:00.072Z,15.87
2019-02-27T10:01:29.219Z,14.23
2019-02-27T10:04:18.020Z,13.10
2019-02-27T10:07:14.658Z,14.57
2019-02-27T10:10:02.612Z,13.30
2019-02-27T10:12:43.344Z,10.03
2019-02-27T10:21:37.819Z,10.90
2019-02-27T10:24:18.660Z,9.47
2019-02-27T10:26:47.075Z,9.87
2019-02-27T10:29:34.843Z,10.53
2019-02-27T10:32:22.596Z,9.67
2019-02-27T10:35:31.073Z,10.10
2019-02-27T10:38:18.831Z,11.90
2019-02-27T10:41:06.583Z,9.40
2019-02-27T10:43:56.591Z,9.57
2019-02-27T10:46:43.817Z,10.07
2019-02-27T10:49:31.573Z,9.33
2019-02-27T10:52:24.080Z,8.77
2019-02-27T10:54:49.480Z,11.40
2019-02-27T10:57:38.455Z,12.33
2019-02-27T11:00:47.008Z,12.87
2019-02-27T11:03:34.764Z,12.03
2019-02-27T11:06:22.596Z,11.63
2019-02-27T11:09:31.078Z,10.90
2019-02-27T11:12:12.154Z,13.20
2019-02-27T11:14:53.008Z,10.77
2019-02-27T11:17:33.751Z,13.23
2019-02-27T11:20:20.413Z,10.50
2019-02-27T11:22:57.697Z,9.30
2019-02-27T11:25:37.949Z,8.00
2019-02-27T11:28:18.653Z,12.37
2019-02-27T11:30:59.732Z,8.17
2019-02-27T11:33:40.449Z,9.63
2019-02-27T11:36:21.607Z,8.90
2019-02-27T11:39:02.480Z,10.77
2019-02-27T11:41:43.057Z,9.53
2019-02-27T11:44:23.712Z,11.37
2019-02-27T11:47:04.551Z,11.03
2019-02-27T11:49:45.383Z,11.63
2019-02-27T11:52:28.655Z,11.83
2019-02-27T11:55:09.118Z,10.97
2019-02-27T11:57:49.409Z,11.10
2019-02-27T12:00:30.424Z,12.30
2019-02-27T12:03:11.943Z,10.13
2019-02-27T12:05:52.756Z,10.33
2019-02-27T12:08:33.752Z,9.47
2019-02-27T12:11:14.249Z,14.33
2019-02-27T12:13:54.872Z,9.83
2019-02-27T12:16:35.880Z,10.97
2019-02-27T12:19:16.505Z,11.43
2019-02-27T12:22:00.277Z,12.77
2019-02-27T12:27:42.763Z,14.57
2019-02-27T12:30:31.111Z,10.87
2019-02-27T12:35:53.584Z,11.43
2019-02-27T12:38:42.365Z,11.27
2019-02-27T12:41:11.471Z,10.63
2019-02-27T12:43:59.224Z,9.73
2019-02-27T12:46:39.860Z,11.00
2019-02-27T12:49:20.950Z,11.07
2019-02-27T12:52:01.540Z,10.23
2019-02-27T12:54:29.962Z,10.83
2019-02-27T12:57:18.183Z,9.00
2019-02-27T13:00:26.691Z,12.07
2019-02-27T13:03:14.440Z,9.83
2019-02-27T13:06:02.221Z,10.53
2019-02-27T13:08:52.656Z,12.77
2019-02-27T13:11:41.922Z,12.67
2019-02-27T13:14:33.152Z,8.90
2019-02-27T13:17:18.399Z,10.97
2019-02-27T13:20:17.856Z,8.43
2019-02-27T13:23:05.695Z,12.60
2019-02-27T13:29:00.299Z,7.63
2019-02-27T13:31:28.708Z,10.53
2019-02-27T13:34:16.460Z,9.90
2019-02-27T13:37:09.127Z,10.07
2019-02-27T13:39:53.876Z,8.90
2019-02-27T13:42:41.637Z,9.47
2019-02-27T13:45:30.927Z,9.23
2019-02-27T13:48:11.484Z,8.87
2019-02-27T13:50:52.121Z,12.20
2019-02-27T13:53:33.184Z,13.13
2019-02-27T13:56:16.066Z,11.73
2019-02-27T13:58:55.764Z,7.73
2019-02-27T14:01:36.874Z,9.40
2019-02-27T14:04:21.874Z,8.70
2019-02-27T14:07:00.337Z,11.60
2019-02-27T14:09:41.547Z,10.87
2019-02-27T14:12:23.218Z,10.13
2019-02-27T14:15:03.680Z,11.13
2019-02-27T14:17:44.688Z,7.60
2019-02-27T14:20:26.907Z,10.17
2019-02-27T14:23:07.339Z,14.97
2019-02-27T14:25:48.397Z,10.30
2019-02-27T14:28:28.841Z,8.93
2019-02-27T14:31:10.051Z,9.17
2019-02-27T14:33:38.504Z,9.57
2019-02-27T14:36:26.259Z,10.77
2019-02-27T14:41:51.290Z,8.53
2019-02-27T14:44:19.775Z,8.30
2019-02-27T14:47:07.539Z,9.50
2019-02-27T14:49:35.941Z,9.43
2019-02-27T14:52:23.696Z,6.47
2019-02-27T14:55:12.711Z,7.97
2019-02-27T14:58:00.486Z,8.70
2019-02-27T15:03:55.109Z,8.80
2019-02-27T15:06:42.845Z,9.17
2019-02-27T15:09:30.599Z,7.77
2019-02-27T15:12:19.506Z,10.77
2019-02-27T15:15:28.544Z,6.70
2019-02-27T15:18:16.307Z,8.53
2019-02-27T15:21:04.238Z,6.33
2019-02-27T15:23:52.004Z,8.07
2019-02-27T15:26:45.267Z,10.67
2019-02-27T15:29:48.560Z,11.50
2019-02-27T15:32:36.321Z,12.93
2019-02-27T15:35:24.071Z,9.63
2019-02-27T15:38:12.460Z,12.27
2019-02-27T15:44:00.206Z,6.23
2019-02-27T15:46:44.755Z,6.83
2019-02-27T15:49:25.052Z,7.97
2019-02-27T15:52:06.940Z,8.97
2019-02-27T15:54:48.151Z,10.30
2019-02-27T15:57:17.705Z,13.97
2019-02-27T16:00:26.755Z,6.80
2019-02-27T16:03:14.504Z,7.83
2019-02-27T16:06:05.544Z,6.33
2019-02-27T16:08:57.447Z,9.30
2019-02-27T16:11:41.323Z,8.17
2019-02-27T16:14:30.063Z,11.90
2019-02-27T16:20:26.158Z,8.23
2019-02-27T16:23:13.909Z,8.90
2019-02-27T16:26:01.663Z,10.77
2019-02-27T16:28:30.078Z,9.03
2019-02-27T16:31:17.831Z,11.17
2019-02-27T16:34:05.580Z,10.17
2019-02-27T16:36:53.347Z,12.10
2019-02-27T16:39:21.768Z,10.13
2019-02-27T16:41:50.175Z,10.63
2019-02-27T16:44:37.928Z,12.13
2019-02-27T16:47:06.335Z,6.93
2019-02-27T16:49:50.431Z,9.93
2019-02-27T16:52:29.766Z,9.60
2019-02-27T16:55:10.709Z,7.20
2019-02-27T16:57:39.247Z,8.97
2019-02-27T17:00:10.956Z,8.67
2019-02-27T17:02:39.387Z,11.53
2019-02-27T17:05:10.430Z,10.47
2019-02-27T17:07:38.933Z,9.07
2019-02-27T17:10:14.978Z,10.07
2019-02-27T17:13:02.488Z,7.90
2019-02-27T17:15:50.244Z,10.20
2019-02-27T17:18:38.082Z,10.93
2019-02-27T17:21:45.166Z,10.00
2019-02-27T17:24:55.181Z,10.27
2019-02-27T17:27:41.968Z,13.03
2019-02-27T17:30:49.063Z,9.87
2019-02-27T17:33:17.491Z,11.00
2019-02-27T17:36:24.574Z,10.17
2019-02-27T17:38:52.984Z,16.77
2019-02-27T17:41:41.888Z,13.53
2019-02-27T17:44:30.276Z,12.60
2019-02-27T17:47:18.031Z,14.90
2019-02-27T17:50:07.363Z,23.23
2019-02-27T17:52:48.914Z,16.93
2019-02-27T17:55:30.521Z,14.57
2019-02-27T17:58:10.969Z,13.50
2019-02-27T18:00:51.730Z,16.03
2019-02-27T18:03:32.812Z,15.17
2019-02-27T18:06:13.356Z,17.70
2019-02-27T18:08:54.452Z,12.87
2019-02-27T18:11:34.767Z,13.47
2019-02-27T18:14:15.616Z,16.17
2019-02-27T18:16:59.199Z,24.30
2019-02-27T18:19:39.500Z,18.80
2019-02-27T18:22:20.671Z,18.57
2019-02-27T18:34:25.786Z,16.17
2019-02-27T18:37:06.925Z,18.83
2019-02-27T18:39:47.502Z,22.37
2019-02-27T18:42:47.543Z,20.80
2019-02-27T18:45:27.975Z,18.57
2019-02-27T18:48:10.060Z,26.07
2019-02-27T18:50:51.545Z,16.77
2019-02-27T18:53:32.378Z,18.03
2019-02-27T18:58:55.468Z,20.87
2019-02-27T19:04:19.644Z,16.50
2019-02-27T19:06:59.853Z,24.17
2019-02-27T19:09:40.521Z,20.43
2019-02-27T19:12:25.045Z,20.57
2019-02-27T19:14:51.733Z,20.47
2019-02-27T19:17:39.556Z,22.03
2019-02-27T19:20:46.640Z,23.80
2019-02-27T19:23:34.474Z,22.73
2019-02-27T19:26:22.389Z,23.13
2019-02-27T19:29:10.137Z,22.53
2019-02-27T19:31:57.968Z,21.43
2019-02-27T19:34:48.017Z,19.10
2019-02-27T19:37:36.326Z,21.10
2019-02-27T19:40:30.072Z,19.40
2019-02-27T19:43:14.231Z,23.10
2019-02-27T19:46:02.066Z,20.23
2019-02-27T19:48:49.883Z,17.17
2019-02-27T19:54:14.907Z,16.03
2019-02-27T19:56:55.412Z,18.60
2019-02-27T19:59:24.874Z,18.33
2019-02-27T20:02:13.380Z,18.73
2019-02-27T20:05:01.132Z,17.13
2019-02-27T20:07:50.448Z,15.93
2019-02-27T20:10:19.088Z,15.80
2019-02-27T20:12:52.683Z,15.60
2019-02-27T20:15:37.159Z,16.73
2019-02-27T20:18:24.914Z,24.40
2019-02-27T20:20:53.659Z,16.70
2019-02-27T20:23:41.482Z,17.40
2019-02-27T20:26:29.233Z,16.33
2019-02-27T20:29:16.968Z,19.97
2019-02-27T20:32:04.723Z,14.50
2019-02-27T20:34:52.475Z,21.13
2019-02-27T20:37:41.381Z,15.07
2019-02-27T20:40:33.780Z,15.23
2019-02-27T20:42:59.534Z,17.10
2019-02-27T20:45:47.353Z,15.00
2019-02-27T20:48:36.158Z,22.80
2019-02-27T20:51:24.740Z,41.87
2019-02-27T20:54:05.139Z,64.17
2019-02-27T20:59:28.115Z,42.03
2019-02-27T21:02:08.784Z,26.43
2019-02-27T21:04:49.523Z,16.40
2019-02-27T21:07:30.396Z,11.73
2019-02-27T21:09:59.005Z,10.80
2019-02-27T21:12:53.795Z,9.13
2019-02-27T21:15:16.966Z,7.67
2019-02-27T21:18:04.729Z,8.27
2019-02-27T21:20:52.480Z,9.50
2019-02-27T21:23:59.503Z,9.43
2019-02-27T21:26:47.324Z,8.87
2019-02-27T21:29:35.135Z,9.40
2019-02-27T21:32:22.900Z,7.80
2019-02-27T21:35:10.647Z,9.57
2019-02-27T21:37:58.391Z,9.40
2019-02-27T21:40:46.148Z,8.77
2019-02-27T21:43:33.896Z,8.03
2019-02-27T21:46:02.299Z,6.53
2019-02-27T21:48:30.703Z,8.40
2019-02-27T21:51:18.447Z,8.10
2019-02-27T21:54:03.485Z,8.43
2019-02-27T21:56:41.892Z,7.17
2019-02-27T21:59:22.883Z,8.20
2019-02-27T22:02:03.563Z,7.83
2019-02-27T22:04:44.757Z,6.17
2019-02-27T22:07:25.406Z,8.43
2019-02-27T22:10:06.520Z,6.93
2019-02-27T22:12:47.263Z,8.53
2019-02-27T22:15:28.333Z,8.87
2019-02-27T22:18:11.815Z,9.10
2019-02-27T22:20:51.972Z,9.87
2019-02-27T22:23:33.020Z,10.17
2019-02-27T22:26:13.725Z,9.63
2019-02-27T22:28:54.344Z,11.77
2019-02-27T22:31:41.899Z,13.20
2019-02-27T22:34:29.701Z,12.83
2019-02-27T22:37:18.488Z,20.13
2019-02-27T22:40:27.684Z,16.93
2019-02-27T22:43:15.670Z,10.30
2019-02-27T22:46:03.433Z,9.03
2019-02-27T22:48:51.186Z,11.33
2019-02-27T22:51:38.949Z,11.30
2019-02-27T22:54:19.118Z,9.47
2019-02-27T22:57:00.082Z,11.77
2019-02-27T22:59:40.706Z,9.27
2019-02-27T23:02:21.622Z,10.10
2019-02-27T23:05:08.964Z,7.33
2019-02-27T23:07:56.767Z,8.43
2019-02-27T23:10:44.519Z,10.90
2019-02-27T23:13:32.344Z,9.77
2019-02-27T23:16:20.232Z,9.53
2019-02-27T23:19:07.987Z,8.80
2019-02-27T23:21:57.531Z,9.07
2019-02-27T23:24:45.228Z,8.40
2019-02-27T23:27:32.980Z,8.03
2019-02-27T23:30:20.712Z,8.93
2019-02-27T23:33:08.476Z,7.43
2019-02-27T23:35:56.223Z,9.63
2019-02-27T23:38:43.989Z,7.97
2019-02-27T23:41:31.733Z,9.53
2019-02-27T23:44:19.479Z,8.83
2019-02-27T23:47:07.257Z,6.77
2019-02-27T23:49:55.007Z,7.30
2019-02-27T23:52:42.811Z,8.57
2019-02-27T23:55:23.634Z,9.57
2019-02-27T23:58:04.468Z,7.20
